createdAt,value
2022-09-27T00:04:41.060Z,98974.78
2022-09-27T00:09:42.789Z,98985.41
2022-09-27T00:14:44.427Z,98993.16
2022-09-27T00:19:46.021Z,98999.22
2022-09-27T00:24:47.764Z,99006.63
2022-09-27T00:29:49.398Z,99011.66
2022-09-27T00:34:51.062Z,99022.59
2022-09-27T00:39:52.642Z,99020.63
2022-09-27T00:45:12.006Z,99026.69
2022-09-27T00:50:13.702Z,99029.75
2022-09-27T00:55:19.494Z,99030.59
2022-09-27T01:00:21.636Z,99034.56
2022-09-27T01:05:26.990Z,99022.47
2022-09-27T01:10:40.691Z,99030.00
2022-09-27T01:16:21.808Z,99035.16
2022-09-27T01:21:29.621Z,99038.22
2022-09-27T01:27:18.422Z,99051.09
2022-09-27T01:32:33.195Z,99040.03
2022-09-27T01:37:59.947Z,99045.72
2022-09-27T01:43:13.113Z,99045.50
2022-09-27T01:48:22.073Z,99055.06
2022-09-27T01:53:51.444Z,99046.97
2022-09-27T01:59:28.349Z,99059.88
2022-09-27T02:04:43.590Z,99063.03
2022-09-27T02:10:02.399Z,99058.63
2022-09-27T02:15:16.128Z,99052.78
2022-09-27T02:20:41.322Z,99062.50
2022-09-27T02:26:09.847Z,99063.28
2022-09-27T02:31:11.974Z,99065.19
2022-09-27T02:36:14.222Z,99069.06
2022-09-27T02:41:21.539Z,99066.88
2022-09-27T02:46:29.526Z,99069.38
2022-09-27T02:51:31.400Z,99078.84
2022-09-27T02:56:51.458Z,99073.63
2022-09-27T03:02:21.213Z,99082.84
2022-09-27T03:07:36.627Z,99084.09
2022-09-27T03:12:38.403Z,99087.97
2022-09-27T03:17:40.130Z,99092.28
2022-09-27T03:23:17.244Z,99093.53
2022-09-27T03:28:19.387Z,99096.69
2022-09-27T03:33:22.427Z,99102.16
2022-09-27T03:38:32.466Z,99121.44
2022-09-27T03:43:34.551Z,99114.78
2022-09-27T03:48:38.853Z,99121.72
2022-09-27T03:53:40.597Z,99129.31
2022-09-27T03:58:42.438Z,99127.44
2022-09-27T04:03:44.433Z,99131.28
2022-09-27T04:08:59.835Z,99129.16
2022-09-27T04:14:14.382Z,99143.44
2022-09-27T04:19:35.934Z,99133.66
2022-09-27T04:24:42.641Z,99131.94
2022-09-27T04:29:56.828Z,99128.06
2022-09-27T04:35:18.425Z,99131.94
2022-09-27T04:40:20.442Z,99131.69
2022-09-27T04:45:22.230Z,99137.16
2022-09-27T04:50:23.940Z,99136.56
2022-09-27T04:55:36.697Z,99151.50
2022-09-27T05:00:38.413Z,99155.78
2022-09-27T05:06:00.041Z,99157.97
2022-09-27T05:11:01.780Z,99171.41
2022-09-27T05:16:04.580Z,99171.44
2022-09-27T05:21:34.765Z,99164.81
2022-09-27T05:26:36.537Z,99182.03
2022-09-27T05:31:38.670Z,99190.84
2022-09-27T05:36:40.410Z,99188.44
2022-09-27T05:41:46.393Z,99204.84
2022-09-27T05:46:48.366Z,99206.09
2022-09-27T05:51:50.187Z,99207.56
2022-09-27T05:56:58.495Z,99210.47
2022-09-27T06:02:12.990Z,99212.50
2022-09-27T06:07:33.369Z,99228.78
2022-09-27T06:12:37.504Z,99231.28
2022-09-27T06:17:44.409Z,99227.41
2022-09-27T06:22:51.715Z,99234.31
2022-09-27T06:27:54.238Z,99231.84
2022-09-27T06:33:03.230Z,99233.72
2022-09-27T06:38:16.814Z,99243.94
2022-09-27T06:43:25.551Z,99246.88
2022-09-27T06:48:45.654Z,99246.94
2022-09-27T06:53:51.109Z,99249.81
2022-09-27T06:58:53.351Z,99260.56
2022-09-27T07:04:30.698Z,99275.66
2022-09-27T07:09:42.925Z,99273.09
2022-09-27T07:14:44.489Z,99284.84
2022-09-27T07:19:49.470Z,99285.97
2022-09-27T07:24:51.166Z,99294.41
2022-09-27T07:29:53.325Z,99302.81
2022-09-27T07:34:57.721Z,99291.63
2022-09-27T07:40:01.101Z,99298.41
2022-09-27T07:45:08.538Z,99301.53
2022-09-27T07:50:40.293Z,99291.59
2022-09-27T07:56:00.230Z,99316.03
2022-09-27T08:01:04.119Z,99327.47
2022-09-27T08:06:06.882Z,99324.44
2022-09-27T08:11:18.192Z,99322.50
2022-09-27T08:16:21.440Z,99326.97
2022-09-27T08:21:41.975Z,99333.47
2022-09-27T08:26:52.330Z,99334.03
2022-09-27T08:32:02.788Z,99339.81
2022-09-27T08:37:05.340Z,99344.13
2022-09-27T08:42:10.434Z,99350.13
2022-09-27T08:47:18.713Z,99349.94
2022-09-27T08:52:48.241Z,99343.38
2022-09-27T08:57:56.906Z,99350.47
2022-09-27T09:03:02.324Z,99353.66
2022-09-27T09:08:18.445Z,99353.78
2022-09-27T09:13:52.415Z,99343.75
2022-09-27T09:19:23.791Z,99342.03
2022-09-27T09:24:59.925Z,99347.38
2022-09-27T09:30:19.112Z,99335.03
2022-09-27T09:35:39.951Z,99339.72
2022-09-27T09:40:55.463Z,99341.34
2022-09-27T09:46:03.140Z,99331.47
2022-09-27T09:51:08.293Z,99337.50
2022-09-27T09:56:15.593Z,99333.03
2022-09-27T10:01:19.249Z,99324.31
2022-09-27T10:06:23.285Z,99319.06
2022-09-27T10:11:29.062Z,99322.38
2022-09-27T10:16:46.068Z,99316.94
2022-09-27T10:21:50.966Z,99319.84
2022-09-27T10:26:59.751Z,99316.31
2022-09-27T10:32:05.248Z,99311.50
2022-09-27T10:37:21.612Z,99316.81
2022-09-27T10:42:35.608Z,99306.41
2022-09-27T10:47:38.615Z,99312.75
2022-09-27T10:52:49.361Z,99311.81
2022-09-27T10:57:53.681Z,99312.81
2022-09-27T11:02:59.014Z,99304.91
2022-09-27T11:08:19.425Z,99298.00
2022-09-27T11:13:30.608Z,99298.94
2022-09-27T11:18:35.449Z,99302.03
2022-09-27T11:23:46.276Z,99296.00
2022-09-27T11:29:18.571Z,99301.41
2022-09-27T11:35:21.313Z,99292.06
2022-09-27T11:40:46.871Z,99300.38
2022-09-27T11:46:34.222Z,99291.03
2022-09-27T11:52:20.265Z,99301.38
2022-09-27T11:57:27.509Z,99295.72
2022-09-27T12:02:38.128Z,99297.53
2022-09-27T12:07:50.360Z,99293.38
2022-09-27T12:12:56.398Z,99281.03
2022-09-27T12:18:07.914Z,99285.03
2022-09-27T12:23:22.065Z,99283.38
2022-09-27T12:28:40.689Z,99278.16
2022-09-27T12:33:55.962Z,99283.47
2022-09-27T12:39:09.851Z,99288.69
2022-09-27T12:44:12.202Z,99290.59
2022-09-27T12:49:33.445Z,99286.47
2022-09-27T12:54:55.135Z,99286.00
2022-09-27T12:59:56.696Z,99288.28
2022-09-27T13:05:17.146Z,99287.13
2022-09-27T13:10:59.306Z,99284.00
2022-09-27T13:16:08.667Z,99286.88
2022-09-27T13:21:46.804Z,99271.78
2022-09-27T13:27:23.644Z,99280.13
2022-09-27T13:32:25.567Z,99297.22
2022-09-27T13:37:47.125Z,99287.41
2022-09-27T13:43:10.810Z,99303.75
2022-09-27T13:48:27.976Z,99310.25
2022-09-27T13:53:40.768Z,99303.31
2022-09-27T13:58:51.766Z,99300.34
2022-09-27T14:04:11.841Z,99291.88
2022-09-27T14:09:29.144Z,99292.38
2022-09-27T14:14:52.114Z,99300.75
2022-09-27T14:19:54.158Z,99315.00
2022-09-27T14:24:57.703Z,99296.44
2022-09-27T14:30:23.466Z,99288.88
2022-09-27T14:35:32.187Z,99292.63
2022-09-27T14:40:42.581Z,99299.19
2022-09-27T14:45:45.219Z,99308.25
2022-09-27T14:51:05.009Z,99302.09
2022-09-27T14:56:07.286Z,99321.44
2022-09-27T15:01:15.584Z,99314.06
2022-09-27T15:06:17.558Z,99325.13
2022-09-27T15:11:20.563Z,99318.34
2022-09-27T15:16:23.155Z,99319.28
2022-09-27T15:21:33.980Z,99321.78
2022-09-27T15:26:44.072Z,99316.22
2022-09-27T15:31:45.792Z,99325.75
2022-09-27T15:36:47.237Z,99326.13
2022-09-27T15:42:11.602Z,99329.53
2022-09-27T15:47:31.540Z,99333.75
2022-09-27T15:52:46.568Z,99332.38
2022-09-27T15:58:00.882Z,99323.56
2022-09-27T16:03:03.224Z,99330.63
2022-09-27T16:08:04.749Z,99331.84
2022-09-27T16:13:06.460Z,99334.78
2022-09-27T16:18:08.199Z,99325.16
2022-09-27T16:23:09.874Z,99329.31
2022-09-27T16:28:11.528Z,99336.16
2022-09-27T16:33:13.032Z,99328.78
2022-09-27T16:38:14.507Z,99331.66
2022-09-27T16:43:16.000Z,99327.63
2022-09-27T16:48:17.456Z,99314.88
2022-09-27T16:53:18.972Z,99307.47
2022-09-27T16:58:20.425Z,99309.72
2022-09-27T17:03:21.915Z,99289.63
2022-09-27T17:08:26.203Z,99297.69
2022-09-27T17:13:27.976Z,99296.31
2022-09-27T17:18:29.457Z,99300.16
2022-09-27T17:23:32.404Z,99290.50
2022-09-27T17:28:37.497Z,99294.13
2022-09-27T17:33:44.341Z,99290.56
2022-09-27T17:38:46.430Z,99282.69
2022-09-27T17:43:47.925Z,99273.97
2022-09-27T17:48:50.300Z,99275.13
2022-09-27T17:53:51.994Z,99267.06
2022-09-27T17:58:54.931Z,99269.31
2022-09-27T18:03:58.297Z,99261.00
2022-09-27T18:08:59.810Z,99267.47
2022-09-27T18:14:01.917Z,99264.44
2022-09-27T18:19:05.905Z,99260.38
2022-09-27T18:24:07.782Z,99266.75
2022-09-27T18:29:14.836Z,99251.63
2022-09-27T18:34:18.192Z,99254.34
2022-09-27T18:39:19.990Z,99257.84
2022-09-27T18:44:21.472Z,99257.44
2022-09-27T18:49:26.886Z,99255.19
2022-09-27T18:54:30.151Z,99273.28
2022-09-27T18:59:31.650Z,99238.53
2022-09-27T19:04:33.247Z,99216.91
2022-09-27T19:09:34.768Z,99213.06
2022-09-27T19:14:36.477Z,99215.69
2022-09-27T19:19:37.985Z,99195.53
2022-09-27T19:24:39.537Z,99189.78
2022-09-27T19:29:41.062Z,99195.00
2022-09-27T19:34:42.546Z,99188.75
2022-09-27T19:39:44.033Z,99178.66
2022-09-27T19:44:45.499Z,99178.06
2022-09-27T19:49:47.002Z,99173.75
2022-09-27T19:54:48.492Z,99174.63
2022-09-27T19:59:49.974Z,99172.78
2022-09-27T20:04:51.534Z,99165.16
2022-09-27T20:09:53.076Z,99170.13
2022-09-27T20:14:54.587Z,99162.66
2022-09-27T20:19:56.093Z,99152.75
2022-09-27T20:24:57.698Z,99146.88
2022-09-27T20:29:59.184Z,99129.16
2022-09-27T20:35:00.725Z,99121.69
2022-09-27T20:40:02.234Z,99114.63
2022-09-27T20:45:03.949Z,99120.16
2022-09-27T20:50:05.918Z,99129.38
2022-09-27T20:55:07.866Z,99141.75
2022-09-27T21:00:10.159Z,99138.03
2022-09-27T21:05:11.693Z,99126.53
2022-09-27T21:10:13.155Z,99109.59
2022-09-27T21:15:14.736Z,99112.72
2022-09-27T21:20:16.380Z,99109.25
2022-09-27T21:25:17.932Z,99112.50
2022-09-27T21:30:19.439Z,99113.31
2022-09-27T21:35:22.019Z,99110.25
2022-09-27T21:40:23.544Z,99108.44
2022-09-27T21:45:25.107Z,99115.06
2022-09-27T21:50:26.617Z,99104.81
2022-09-27T21:55:28.143Z,99100.66
2022-09-27T22:00:29.639Z,99088.81
2022-09-27T22:05:31.160Z,99079.50
2022-09-27T22:10:32.747Z,99070.34
2022-09-27T22:15:35.665Z,99053.19
2022-09-27T22:20:37.257Z,99037.13
2022-09-27T22:25:38.778Z,99038.50
2022-09-27T22:30:40.275Z,99040.53
2022-09-27T22:35:49.156Z,99040.47
2022-09-27T22:40:54.761Z,99038.06
2022-09-27T22:45:57.216Z,99031.81
2022-09-27T22:50:59.825Z,99029.03
2022-09-27T22:56:04.575Z,99035.00
2022-09-27T23:01:08.860Z,99033.63
2022-09-27T23:06:10.456Z,99021.88
2022-09-27T23:11:14.445Z,99011.09
2022-09-27T23:16:18.909Z,99019.09
2022-09-27T23:21:20.603Z,99009.19
2022-09-27T23:26:24.412Z,99005.53
2022-09-27T23:31:28.062Z,98996.53
2022-09-27T23:36:29.718Z,98991.19
2022-09-27T23:41:31.221Z,98982.38
2022-09-27T23:46:32.757Z,98981.66
2022-09-27T23:51:34.335Z,98979.78
2022-09-27T23:56:35.875Z,98991.72
